sensor_id;sensor_type;location;lat;lon;timestamp;P1;durP1;ratioP1;P2;durP2;ratioP2
37477;SDS011;23334;54.316;10.182;2022-10-26T00:01:08;36.50;;;15.13;;
37477;SDS011;23334;54.316;10.182;2022-10-26T00:03:36;29.53;;;15.30;;
37477;SDS011;23334;54.316;10.182;2022-10-26T00:06:03;39.57;;;14.50;;
37477;SDS011;23334;54.316;10.182;2022-10-26T00:08:30;38.47;;;16.20;;
37477;SDS011;23334;54.316;10.182;2022-10-26T00:10:56;29.57;;;15.33;;
37477;SDS011;23334;54.316;10.182;2022-10-26T00:13:22;37.17;;;15.50;;
37477;SDS011;23334;54.316;10.182;2022-10-26T00:15:47;33.80;;;14.27;;
37477;SDS011;23334;54.316;10.182;2022-10-26T00:18:13;35.63;;;16.20;;
37477;SDS011;23334;54.316;10.182;2022-10-26T00:20:38;35.20;;;13.50;;
37477;SDS011;23334;54.316;10.182;2022-10-26T00:23:04;35.30;;;15.00;;
37477;SDS011;23334;54.316;10.182;2022-10-26T00:25:29;43.30;;;14.50;;
37477;SDS011;23334;54.316;10.182;2022-10-26T00:27:55;29.33;;;14.17;;
37477;SDS011;23334;54.316;10.182;2022-10-26T00:30:20;36.13;;;14.43;;
37477;SDS011;23334;54.316;10.182;2022-10-26T00:32:46;39.33;;;13.83;;
37477;SDS011;23334;54.316;10.182;2022-10-26T00:35:11;33.40;;;13.70;;
37477;SDS011;23334;54.316;10.182;2022-10-26T00:37:37;34.80;;;13.77;;
37477;SDS011;23334;54.316;10.182;2022-10-26T00:40:02;39.33;;;14.53;;
37477;SDS011;23334;54.316;10.182;2022-10-26T00:42:28;45.27;;;15.23;;
37477;SDS011;23334;54.316;10.182;2022-10-26T00:45:00;29.37;;;13.83;;
37477;SDS011;23334;54.316;10.182;2022-10-26T00:48:00;38.40;;;13.60;;
37477;SDS011;23334;54.316;10.182;2022-10-26T00:50:32;33.27;;;13.90;;
37477;SDS011;23334;54.316;10.182;2022-10-26T00:53:01;39.50;;;14.10;;
37477;SDS011;23334;54.316;10.182;2022-10-26T00:55:30;30.43;;;13.83;;
37477;SDS011;23334;54.316;10.182;2022-10-26T00:57:59;29.50;;;13.50;;
37477;SDS011;23334;54.316;10.182;2022-10-26T01:00:26;29.07;;;14.27;;
37477;SDS011;23334;54.316;10.182;2022-10-26T01:02:52;41.20;;;14.93;;
37477;SDS011;23334;54.316;10.182;2022-10-26T01:05:21;31.13;;;13.10;;
37477;SDS011;23334;54.316;10.182;2022-10-26T01:07:49;36.37;;;14.17;;
37477;SDS011;23334;54.316;10.182;2022-10-26T01:10:16;31.43;;;12.90;;
37477;SDS011;23334;54.316;10.182;2022-10-26T01:12:42;34.50;;;14.90;;
37477;SDS011;23334;54.316;10.182;2022-10-26T01:15:08;34.73;;;14.33;;
37477;SDS011;23334;54.316;10.182;2022-10-26T01:17:53;29.63;;;14.97;;
37477;SDS011;23334;54.316;10.182;2022-10-26T01:23:26;33.40;;;13.77;;
37477;SDS011;23334;54.316;10.182;2022-10-26T01:26:16;37.50;;;14.70;;
37477;SDS011;23334;54.316;10.182;2022-10-26T01:28:49;32.73;;;14.23;;
37477;SDS011;23334;54.316;10.182;2022-10-26T01:31:22;36.77;;;14.40;;
37477;SDS011;23334;54.316;10.182;2022-10-26T01:34:00;35.13;;;14.30;;
37477;SDS011;23334;54.316;10.182;2022-10-26T01:36:31;40.83;;;14.27;;
37477;SDS011;23334;54.316;10.182;2022-10-26T01:39:47;32.93;;;13.37;;
37477;SDS011;23334;54.316;10.182;2022-10-26T01:41:58;36.17;;;14.07;;
37477;SDS011;23334;54.316;10.182;2022-10-26T01:44:28;45.97;;;14.20;;
37477;SDS011;23334;54.316;10.182;2022-10-26T01:47:03;53.70;;;15.27;;
37477;SDS011;23334;54.316;10.182;2022-10-26T01:49:37;35.93;;;14.90;;
37477;SDS011;23334;54.316;10.182;2022-10-26T01:52:08;39.23;;;15.87;;
37477;SDS011;23334;54.316;10.182;2022-10-26T01:54:34;35.83;;;15.27;;
37477;SDS011;23334;54.316;10.182;2022-10-26T01:57:01;40.63;;;16.67;;
37477;SDS011;23334;54.316;10.182;2022-10-26T01:59:41;37.37;;;15.50;;
37477;SDS011;23334;54.316;10.182;2022-10-26T02:02:25;38.00;;;15.43;;
37477;SDS011;23334;54.316;10.182;2022-10-26T02:07:33;41.00;;;16.40;;
37477;SDS011;23334;54.316;10.182;2022-10-26T02:13:09;44.10;;;17.40;;
37477;SDS011;23334;54.316;10.182;2022-10-26T02:15:53;41.40;;;16.17;;
37477;SDS011;23334;54.316;10.182;2022-10-26T02:18:41;61.23;;;16.80;;
37477;SDS011;23334;54.316;10.182;2022-10-26T02:21:18;42.10;;;16.00;;
37477;SDS011;23334;54.316;10.182;2022-10-26T02:23:48;42.50;;;15.50;;
37477;SDS011;23334;54.316;10.182;2022-10-26T02:26:17;40.47;;;16.10;;
37477;SDS011;23334;54.316;10.182;2022-10-26T02:28:47;48.00;;;15.73;;
37477;SDS011;23334;54.316;10.182;2022-10-26T02:31:14;36.43;;;15.07;;
37477;SDS011;23334;54.316;10.182;2022-10-26T02:33:43;39.60;;;15.23;;
37477;SDS011;23334;54.316;10.182;2022-10-26T02:36:15;46.40;;;16.97;;
37477;SDS011;23334;54.316;10.182;2022-10-26T02:38:44;49.10;;;16.60;;
37477;SDS011;23334;54.316;10.182;2022-10-26T02:41:11;42.23;;;15.80;;
37477;SDS011;23334;54.316;10.182;2022-10-26T02:43:40;41.70;;;17.93;;
37477;SDS011;23334;54.316;10.182;2022-10-26T02:46:15;34.80;;;16.80;;
37477;SDS011;23334;54.316;10.182;2022-10-26T02:48:44;40.03;;;15.90;;
37477;SDS011;23334;54.316;10.182;2022-10-26T02:51:11;37.53;;;14.40;;
37477;SDS011;23334;54.316;10.182;2022-10-26T02:53:44;38.93;;;15.27;;
37477;SDS011;23334;54.316;10.182;2022-10-26T02:56:20;36.90;;;15.10;;
37477;SDS011;23334;54.316;10.182;2022-10-26T02:58:51;40.10;;;16.97;;
37477;SDS011;23334;54.316;10.182;2022-10-26T03:01:21;45.73;;;15.57;;
37477;SDS011;23334;54.316;10.182;2022-10-26T03:03:47;30.77;;;15.27;;
37477;SDS011;23334;54.316;10.182;2022-10-26T03:06:19;28.80;;;13.13;;
37477;SDS011;23334;54.316;10.182;2022-10-26T03:08:46;45.77;;;14.43;;
37477;SDS011;23334;54.316;10.182;2022-10-26T03:11:12;26.47;;;12.90;;
37477;SDS011;23334;54.316;10.182;2022-10-26T03:13:37;30.13;;;13.30;;
37477;SDS011;23334;54.316;10.182;2022-10-26T03:16:03;29.93;;;12.73;;
37477;SDS011;23334;54.316;10.182;2022-10-26T03:18:28;24.87;;;12.30;;
37477;SDS011;23334;54.316;10.182;2022-10-26T03:20:54;26.47;;;12.50;;
37477;SDS011;23334;54.316;10.182;2022-10-26T03:23:19;26.40;;;12.60;;
37477;SDS011;23334;54.316;10.182;2022-10-26T03:25:44;29.50;;;11.60;;
37477;SDS011;23334;54.316;10.182;2022-10-26T03:28:10;24.97;;;11.40;;
37477;SDS011;23334;54.316;10.182;2022-10-26T03:30:35;23.80;;;11.20;;
37477;SDS011;23334;54.316;10.182;2022-10-26T03:33:01;30.60;;;12.00;;
37477;SDS011;23334;54.316;10.182;2022-10-26T03:35:26;30.90;;;12.10;;
37477;SDS011;23334;54.316;10.182;2022-10-26T03:37:52;32.67;;;12.97;;
37477;SDS011;23334;54.316;10.182;2022-10-26T03:40:18;29.67;;;13.10;;
37477;SDS011;23334;54.316;10.182;2022-10-26T03:42:44;27.13;;;13.37;;
37477;SDS011;23334;54.316;10.182;2022-10-26T03:45:10;23.13;;;12.17;;
37477;SDS011;23334;54.316;10.182;2022-10-26T03:47:45;34.93;;;13.40;;
37477;SDS011;23334;54.316;10.182;2022-10-26T03:50:13;28.37;;;12.73;;
37477;SDS011;23334;54.316;10.182;2022-10-26T03:52:39;32.93;;;13.50;;
37477;SDS011;23334;54.316;10.182;2022-10-26T03:55:05;30.10;;;12.60;;
37477;SDS011;23334;54.316;10.182;2022-10-26T03:57:31;36.17;;;12.70;;
37477;SDS011;23334;54.316;10.182;2022-10-26T03:59:57;27.37;;;12.73;;
37477;SDS011;23334;54.316;10.182;2022-10-26T04:02:22;33.30;;;13.30;;
37477;SDS011;23334;54.316;10.182;2022-10-26T04:04:48;31.80;;;13.00;;
37477;SDS011;23334;54.316;10.182;2022-10-26T04:07:13;29.10;;;13.57;;
37477;SDS011;23334;54.316;10.182;2022-10-26T04:09:39;34.33;;;14.43;;
37477;SDS011;23334;54.316;10.182;2022-10-26T04:12:04;39.20;;;14.87;;
37477;SDS011;23334;54.316;10.182;2022-10-26T04:14:30;55.17;;;19.10;;
37477;SDS011;23334;54.316;10.182;2022-10-26T04:16:55;50.33;;;16.40;;
37477;SDS011;23334;54.316;10.182;2022-10-26T04:19:21;47.70;;;16.70;;
37477;SDS011;23334;54.316;10.182;2022-10-26T04:21:46;68.87;;;17.60;;
37477;SDS011;23334;54.316;10.182;2022-10-26T04:24:12;47.13;;;17.13;;
37477;SDS011;23334;54.316;10.182;2022-10-26T04:26:37;49.43;;;16.20;;
37477;SDS011;23334;54.316;10.182;2022-10-26T04:29:03;46.23;;;15.90;;
37477;SDS011;23334;54.316;10.182;2022-10-26T04:31:30;47.67;;;17.47;;
37477;SDS011;23334;54.316;10.182;2022-10-26T04:33:56;51.83;;;16.90;;
37477;SDS011;23334;54.316;10.182;2022-10-26T04:36:22;59.00;;;17.43;;
37477;SDS011;23334;54.316;10.182;2022-10-26T04:38:47;62.20;;;15.60;;
37477;SDS011;23334;54.316;10.182;2022-10-26T04:41:13;51.40;;;17.30;;
37477;SDS011;23334;54.316;10.182;2022-10-26T04:43:39;49.77;;;16.90;;
37477;SDS011;23334;54.316;10.182;2022-10-26T04:46:05;47.40;;;18.77;;
37477;SDS011;23334;54.316;10.182;2022-10-26T04:48:30;62.27;;;17.87;;
37477;SDS011;23334;54.316;10.182;2022-10-26T04:50:59;45.07;;;16.67;;
37477;SDS011;23334;54.316;10.182;2022-10-26T04:53:25;50.93;;;20.00;;
37477;SDS011;23334;54.316;10.182;2022-10-26T04:55:55;63.80;;;19.53;;
37477;SDS011;23334;54.316;10.182;2022-10-26T04:58:21;50.13;;;16.97;;
37477;SDS011;23334;54.316;10.182;2022-10-26T05:00:47;52.90;;;19.40;;
37477;SDS011;23334;54.316;10.182;2022-10-26T05:03:12;50.17;;;17.63;;
37477;SDS011;23334;54.316;10.182;2022-10-26T05:05:38;51.63;;;18.43;;
37477;SDS011;23334;54.316;10.182;2022-10-26T05:08:03;52.73;;;17.97;;
37477;SDS011;23334;54.316;10.182;2022-10-26T05:10:29;57.73;;;17.87;;
37477;SDS011;23334;54.316;10.182;2022-10-26T05:12:55;42.33;;;17.23;;
37477;SDS011;23334;54.316;10.182;2022-10-26T05:15:23;57.93;;;17.03;;
37477;SDS011;23334;54.316;10.182;2022-10-26T05:18:01;48.63;;;17.87;;
37477;SDS011;23334;54.316;10.182;2022-10-26T05:20:29;59.97;;;18.60;;
37477;SDS011;23334;54.316;10.182;2022-10-26T05:22:57;50.67;;;16.80;;
37477;SDS011;23334;54.316;10.182;2022-10-26T05:25:25;48.30;;;16.80;;
37477;SDS011;23334;54.316;10.182;2022-10-26T05:27:56;50.23;;;18.37;;
37477;SDS011;23334;54.316;10.182;2022-10-26T05:30:22;50.30;;;17.43;;
37477;SDS011;23334;54.316;10.182;2022-10-26T05:32:54;45.60;;;16.30;;
37477;SDS011;23334;54.316;10.182;2022-10-26T05:35:21;43.13;;;16.70;;
37477;SDS011;23334;54.316;10.182;2022-10-26T05:37:47;42.23;;;17.00;;
37477;SDS011;23334;54.316;10.182;2022-10-26T05:40:12;45.30;;;16.77;;
37477;SDS011;23334;54.316;10.182;2022-10-26T05:42:39;51.13;;;17.13;;
37477;SDS011;23334;54.316;10.182;2022-10-26T05:45:04;40.70;;;16.10;;
37477;SDS011;23334;54.316;10.182;2022-10-26T05:47:30;39.97;;;15.87;;
37477;SDS011;23334;54.316;10.182;2022-10-26T05:49:56;49.37;;;17.23;;
37477;SDS011;23334;54.316;10.182;2022-10-26T05:52:21;36.47;;;14.60;;
37477;SDS011;23334;54.316;10.182;2022-10-26T05:54:47;47.23;;;14.40;;
37477;SDS011;23334;54.316;10.182;2022-10-26T05:57:12;37.90;;;16.40;;
37477;SDS011;23334;54.316;10.182;2022-10-26T05:59:38;40.20;;;15.30;;
37477;SDS011;23334;54.316;10.182;2022-10-26T06:02:14;40.80;;;14.93;;
37477;SDS011;23334;54.316;10.182;2022-10-26T06:04:56;32.00;;;13.63;;
37477;SDS011;23334;54.316;10.182;2022-10-26T06:07:28;34.50;;;13.00;;
37477;SDS011;23334;54.316;10.182;2022-10-26T06:09:54;42.80;;;15.20;;
37477;SDS011;23334;54.316;10.182;2022-10-26T06:12:19;25.90;;;13.53;;
37477;SDS011;23334;54.316;10.182;2022-10-26T06:14:45;38.47;;;14.77;;
37477;SDS011;23334;54.316;10.182;2022-10-26T06:25:35;25.10;;;13.00;;
37477;SDS011;23334;54.316;10.182;2022-10-26T06:28:26;27.93;;;11.57;;
37477;SDS011;23334;54.316;10.182;2022-10-26T06:31:15;29.63;;;12.17;;
37477;SDS011;23334;54.316;10.182;2022-10-26T06:33:41;27.07;;;12.20;;
37477;SDS011;23334;54.316;10.182;2022-10-26T06:36:20;41.83;;;12.73;;
37477;SDS011;23334;54.316;10.182;2022-10-26T06:38:49;35.43;;;12.20;;
37477;SDS011;23334;54.316;10.182;2022-10-26T06:41:17;31.73;;;12.27;;
37477;SDS011;23334;54.316;10.182;2022-10-26T06:43:44;38.60;;;12.67;;
37477;SDS011;23334;54.316;10.182;2022-10-26T06:46:30;83.17;;;13.27;;
37477;SDS011;23334;54.316;10.182;2022-10-26T06:49:25;67.53;;;12.83;;
37477;SDS011;23334;54.316;10.182;2022-10-26T06:52:02;94.07;;;14.10;;
37477;SDS011;23334;54.316;10.182;2022-10-26T06:54:48;71.73;;;13.73;;
37477;SDS011;23334;54.316;10.182;2022-10-26T06:57:16;77.63;;;13.67;;
37477;SDS011;23334;54.316;10.182;2022-10-26T07:02:15;61.23;;;13.10;;
37477;SDS011;23334;54.316;10.182;2022-10-26T07:04:41;20.73;;;10.40;;
37477;SDS011;23334;54.316;10.182;2022-10-26T07:07:08;22.67;;;11.83;;
37477;SDS011;23334;54.316;10.182;2022-10-26T07:09:39;24.33;;;13.13;;
37477;SDS011;23334;54.316;10.182;2022-10-26T07:12:04;48.87;;;13.83;;
37477;SDS011;23334;54.316;10.182;2022-10-26T07:14:30;28.33;;;12.07;;
37477;SDS011;23334;54.316;10.182;2022-10-26T07:16:55;34.13;;;14.47;;
37477;SDS011;23334;54.316;10.182;2022-10-26T07:19:21;30.73;;;12.37;;
37477;SDS011;23334;54.316;10.182;2022-10-26T07:21:47;23.10;;;12.57;;
37477;SDS011;23334;54.316;10.182;2022-10-26T07:24:12;24.50;;;13.00;;
37477;SDS011;23334;54.316;10.182;2022-10-26T07:26:38;23.50;;;13.03;;
37477;SDS011;23334;54.316;10.182;2022-10-26T07:29:03;20.57;;;11.63;;
37477;SDS011;23334;54.316;10.182;2022-10-26T07:31:29;23.40;;;12.40;;
37477;SDS011;23334;54.316;10.182;2022-10-26T07:33:54;32.80;;;13.30;;
37477;SDS011;23334;54.316;10.182;2022-10-26T07:36:20;26.40;;;13.27;;
37477;SDS011;23334;54.316;10.182;2022-10-26T07:38:46;29.23;;;12.07;;
37477;SDS011;23334;54.316;10.182;2022-10-26T07:41:11;22.40;;;13.17;;
37477;SDS011;23334;54.316;10.182;2022-10-26T07:43:38;20.20;;;11.20;;
37477;SDS011;23334;54.316;10.182;2022-10-26T07:46:03;23.50;;;12.83;;
37477;SDS011;23334;54.316;10.182;2022-10-26T07:48:29;24.50;;;11.90;;
37477;SDS011;23334;54.316;10.182;2022-10-26T07:50:56;28.30;;;13.60;;
37477;SDS011;23334;54.316;10.182;2022-10-26T07:53:21;29.73;;;14.70;;
37477;SDS011;23334;54.316;10.182;2022-10-26T07:55:53;31.80;;;14.23;;
37477;SDS011;23334;54.316;10.182;2022-10-26T07:58:19;34.20;;;14.57;;
37477;SDS011;23334;54.316;10.182;2022-10-26T08:00:48;39.73;;;14.97;;
37477;SDS011;23334;54.316;10.182;2022-10-26T08:03:14;27.83;;;14.23;;
37477;SDS011;23334;54.316;10.182;2022-10-26T08:05:40;25.87;;;14.30;;
37477;SDS011;23334;54.316;10.182;2022-10-26T08:08:06;39.00;;;14.50;;
37477;SDS011;23334;54.316;10.182;2022-10-26T08:10:31;28.40;;;14.40;;
37477;SDS011;23334;54.316;10.182;2022-10-26T08:12:57;27.00;;;14.13;;
37477;SDS011;23334;54.316;10.182;2022-10-26T08:15:22;40.07;;;13.77;;
37477;SDS011;23334;54.316;10.182;2022-10-26T08:17:48;28.67;;;13.47;;
37477;SDS011;23334;54.316;10.182;2022-10-26T08:20:13;16.13;;;10.70;;
37477;SDS011;23334;54.316;10.182;2022-10-26T08:22:39;19.77;;;9.13;;
37477;SDS011;23334;54.316;10.182;2022-10-26T08:25:04;22.60;;;9.73;;
37477;SDS011;23334;54.316;10.182;2022-10-26T08:27:30;19.33;;;9.10;;
37477;SDS011;23334;54.316;10.182;2022-10-26T08:29:55;19.37;;;8.30;;
37477;SDS011;23334;54.316;10.182;2022-10-26T08:32:21;17.30;;;7.97;;
37477;SDS011;23334;54.316;10.182;2022-10-26T08:34:46;23.03;;;8.17;;
37477;SDS011;23334;54.316;10.182;2022-10-26T08:37:12;22.10;;;7.70;;
37477;SDS011;23334;54.316;10.182;2022-10-26T08:39:37;18.80;;;7.13;;
37477;SDS011;23334;54.316;10.182;2022-10-26T08:42:04;13.17;;;6.40;;
37477;SDS011;23334;54.316;10.182;2022-10-26T08:44:45;24.20;;;6.87;;
37477;SDS011;23334;54.316;10.182;2022-10-26T08:47:20;14.87;;;6.23;;
37477;SDS011;23334;54.316;10.182;2022-10-26T11:37:35;5.50;;;3.20;;
37477;SDS011;23334;54.316;10.182;2022-10-26T11:42:45;6.37;;;3.37;;
37477;SDS011;23334;54.316;10.182;2022-10-26T11:45:40;6.57;;;3.93;;
37477;SDS011;23334;54.316;10.182;2022-10-26T11:48:22;10.50;;;3.30;;
37477;SDS011;23334;54.316;10.182;2022-10-26T11:50:55;6.97;;;3.40;;
37477;SDS011;23334;54.316;10.182;2022-10-26T11:53:24;8.93;;;3.00;;
37477;SDS011;23334;54.316;10.182;2022-10-26T11:56:09;4.57;;;2.40;;
37477;SDS011;23334;54.316;10.182;2022-10-26T11:58:39;6.23;;;2.60;;
37477;SDS011;23334;54.316;10.182;2022-10-26T12:01:09;5.40;;;2.53;;
37477;SDS011;23334;54.316;10.182;2022-10-26T12:03:42;6.27;;;2.57;;
37477;SDS011;23334;54.316;10.182;2022-10-26T12:06:10;4.37;;;2.80;;
37477;SDS011;23334;54.316;10.182;2022-10-26T12:08:42;3.80;;;2.63;;
37477;SDS011;23334;54.316;10.182;2022-10-26T12:11:20;3.33;;;2.13;;
37477;SDS011;23334;54.316;10.182;2022-10-26T12:14:23;4.40;;;2.70;;
37477;SDS011;23334;54.316;10.182;2022-10-26T12:17:12;3.70;;;2.37;;
37477;SDS011;23334;54.316;10.182;2022-10-26T12:22:31;3.97;;;2.40;;
37477;SDS011;23334;54.316;10.182;2022-10-26T12:25:16;8.27;;;2.23;;
37477;SDS011;23334;54.316;10.182;2022-10-26T12:35:29;4.70;;;2.50;;
37477;SDS011;23334;54.316;10.182;2022-10-26T12:37:58;4.00;;;2.53;;
37477;SDS011;23334;54.316;10.182;2022-10-26T12:45:42;8.93;;;2.27;;
37477;SDS011;23334;54.316;10.182;2022-10-26T12:48:37;7.10;;;2.40;;
37477;SDS011;23334;54.316;10.182;2022-10-26T12:53:50;5.87;;;2.60;;
37477;SDS011;23334;54.316;10.182;2022-10-26T12:56:23;6.17;;;2.57;;
37477;SDS011;23334;54.316;10.182;2022-10-26T12:59:07;3.13;;;2.07;;
37477;SDS011;23334;54.316;10.182;2022-10-26T13:05:14;6.23;;;2.60;;
37477;SDS011;23334;54.316;10.182;2022-10-26T13:08:00;12.47;;;2.47;;
37477;SDS011;23334;54.316;10.182;2022-10-26T13:10:34;5.70;;;2.10;;
37477;SDS011;23334;54.316;10.182;2022-10-26T13:13:03;4.63;;;2.20;;
37477;SDS011;23334;54.316;10.182;2022-10-26T13:20:31;3.23;;;2.07;;
37477;SDS011;23334;54.316;10.182;2022-10-26T13:23:00;3.60;;;2.10;;
37477;SDS011;23334;54.316;10.182;2022-10-26T13:25:28;3.00;;;2.30;;
37477;SDS011;23334;54.316;10.182;2022-10-26T13:30:56;4.83;;;2.57;;
37477;SDS011;23334;54.316;10.182;2022-10-26T13:33:23;5.10;;;2.03;;
37477;SDS011;23334;54.316;10.182;2022-10-26T13:35:55;3.33;;;2.50;;
37477;SDS011;23334;54.316;10.182;2022-10-26T13:38:23;6.17;;;2.47;;
37477;SDS011;23334;54.316;10.182;2022-10-26T13:40:55;11.20;;;2.10;;
37477;SDS011;23334;54.316;10.182;2022-10-26T13:43:28;9.30;;;2.50;;
37477;SDS011;23334;54.316;10.182;2022-10-26T13:45:55;3.30;;;2.00;;
37477;SDS011;23334;54.316;10.182;2022-10-26T13:48:27;3.60;;;2.30;;
37477;SDS011;23334;54.316;10.182;2022-10-26T13:51:02;3.43;;;2.37;;
37477;SDS011;23334;54.316;10.182;2022-10-26T13:53:39;9.23;;;2.90;;
37477;SDS011;23334;54.316;10.182;2022-10-26T13:56:21;2.57;;;2.27;;
37477;SDS011;23334;54.316;10.182;2022-10-26T13:58:56;5.33;;;2.13;;
37477;SDS011;23334;54.316;10.182;2022-10-26T14:01:27;6.93;;;2.47;;
37477;SDS011;23334;54.316;10.182;2022-10-26T14:03:53;4.63;;;2.80;;
37477;SDS011;23334;54.316;10.182;2022-10-26T14:08:48;3.63;;;2.07;;
37477;SDS011;23334;54.316;10.182;2022-10-26T14:11:17;2.77;;;1.90;;
37477;SDS011;23334;54.316;10.182;2022-10-26T14:13:46;3.67;;;2.07;;
37477;SDS011;23334;54.316;10.182;2022-10-26T14:16:14;3.47;;;2.40;;
37477;SDS011;23334;54.316;10.182;2022-10-26T14:18:44;11.00;;;1.87;;
37477;SDS011;23334;54.316;10.182;2022-10-26T14:21:17;22.20;;;2.47;;
37477;SDS011;23334;54.316;10.182;2022-10-26T14:23:52;5.90;;;2.03;;
37477;SDS011;23334;54.316;10.182;2022-10-26T14:26:21;4.80;;;2.23;;
37477;SDS011;23334;54.316;10.182;2022-10-26T14:28:55;3.30;;;2.43;;
37477;SDS011;23334;54.316;10.182;2022-10-26T14:31:23;7.93;;;2.70;;
37477;SDS011;23334;54.316;10.182;2022-10-26T14:33:51;7.40;;;2.03;;
37477;SDS011;23334;54.316;10.182;2022-10-26T14:36:18;4.27;;;1.80;;
37477;SDS011;23334;54.316;10.182;2022-10-26T14:38:50;2.27;;;1.80;;
37477;SDS011;23334;54.316;10.182;2022-10-26T14:41:20;8.07;;;2.00;;
37477;SDS011;23334;54.316;10.182;2022-10-26T14:43:46;2.10;;;2.00;;
37477;SDS011;23334;54.316;10.182;2022-10-26T14:46:13;2.60;;;1.90;;
37477;SDS011;23334;54.316;10.182;2022-10-26T14:48:42;4.17;;;2.93;;
37477;SDS011;23334;54.316;10.182;2022-10-26T14:51:20;5.13;;;2.03;;
37477;SDS011;23334;54.316;10.182;2022-10-26T14:53:51;5.90;;;2.60;;
37477;SDS011;23334;54.316;10.182;2022-10-26T14:56:22;3.73;;;2.20;;
37477;SDS011;23334;54.316;10.182;2022-10-26T14:58:50;3.93;;;2.20;;
37477;SDS011;23334;54.316;10.182;2022-10-26T15:03:45;6.30;;;2.20;;
37477;SDS011;23334;54.316;10.182;2022-10-26T15:06:48;9.10;;;2.90;;
37477;SDS011;23334;54.316;10.182;2022-10-26T15:09:27;3.30;;;2.30;;
37477;SDS011;23334;54.316;10.182;2022-10-26T15:17:48;2.60;;;2.40;;
37477;SDS011;23334;54.316;10.182;2022-10-26T15:20:25;8.83;;;2.73;;
37477;SDS011;23334;54.316;10.182;2022-10-26T15:23:01;4.33;;;2.40;;
37477;SDS011;23334;54.316;10.182;2022-10-26T15:25:28;5.70;;;2.60;;
37477;SDS011;23334;54.316;10.182;2022-10-26T15:30:59;9.03;;;2.20;;
37477;SDS011;23334;54.316;10.182;2022-10-26T15:33:25;9.37;;;2.80;;
37477;SDS011;23334;54.316;10.182;2022-10-26T15:36:04;5.57;;;2.33;;
37477;SDS011;23334;54.316;10.182;2022-10-26T15:39:00;3.63;;;2.60;;
37477;SDS011;23334;54.316;10.182;2022-10-26T15:41:26;3.23;;;2.00;;
37477;SDS011;23334;54.316;10.182;2022-10-26T15:44:04;5.90;;;2.30;;
37477;SDS011;23334;54.316;10.182;2022-10-26T15:46:37;3.93;;;2.57;;
37477;SDS011;23334;54.316;10.182;2022-10-26T15:49:03;3.13;;;2.40;;
37477;SDS011;23334;54.316;10.182;2022-10-26T15:51:31;3.83;;;2.57;;
37477;SDS011;23334;54.316;10.182;2022-10-26T15:53:57;4.60;;;1.67;;
37477;SDS011;23334;54.316;10.182;2022-10-26T15:56:24;10.63;;;2.93;;
37477;SDS011;23334;54.316;10.182;2022-10-26T15:58:50;2.33;;;2.17;;
37477;SDS011;23334;54.316;10.182;2022-10-26T16:01:16;2.60;;;2.30;;
37477;SDS011;23334;54.316;10.182;2022-10-26T16:03:44;8.63;;;2.87;;
37477;SDS011;23334;54.316;10.182;2022-10-26T16:06:13;2.73;;;2.40;;
37477;SDS011;23334;54.316;10.182;2022-10-26T16:08:53;7.40;;;3.37;;
37477;SDS011;23334;54.316;10.182;2022-10-26T16:11:20;7.03;;;2.70;;
37477;SDS011;23334;54.316;10.182;2022-10-26T16:13:46;4.10;;;2.43;;
37477;SDS011;23334;54.316;10.182;2022-10-26T16:16:13;4.63;;;2.60;;
37477;SDS011;23334;54.316;10.182;2022-10-26T16:18:40;4.60;;;2.80;;
37477;SDS011;23334;54.316;10.182;2022-10-26T16:21:09;10.20;;;2.60;;
37477;SDS011;23334;54.316;10.182;2022-10-26T16:23:44;11.90;;;2.80;;
37477;SDS011;23334;54.316;10.182;2022-10-26T16:26:11;6.27;;;3.07;;
37477;SDS011;23334;54.316;10.182;2022-10-26T16:28:37;8.03;;;2.53;;
37477;SDS011;23334;54.316;10.182;2022-10-26T16:31:03;5.90;;;2.87;;
37477;SDS011;23334;54.316;10.182;2022-10-26T16:33:30;9.30;;;2.60;;
37477;SDS011;23334;54.316;10.182;2022-10-26T16:35:57;6.10;;;3.07;;
37477;SDS011;23334;54.316;10.182;2022-10-26T16:38:24;7.10;;;2.83;;
37477;SDS011;23334;54.316;10.182;2022-10-26T16:40:53;3.87;;;2.50;;
37477;SDS011;23334;54.316;10.182;2022-10-26T16:43:32;8.47;;;3.30;;
37477;SDS011;23334;54.316;10.182;2022-10-26T16:46:05;6.70;;;3.00;;
37477;SDS011;23334;54.316;10.182;2022-10-26T16:48:33;3.87;;;3.57;;
37477;SDS011;23334;54.316;10.182;2022-10-26T16:51:04;7.00;;;3.00;;
37477;SDS011;23334;54.316;10.182;2022-10-26T16:53:33;7.63;;;2.87;;
37477;SDS011;23334;54.316;10.182;2022-10-26T16:56:03;3.93;;;2.77;;
37477;SDS011;23334;54.316;10.182;2022-10-26T16:58:31;3.27;;;2.47;;
37477;SDS011;23334;54.316;10.182;2022-10-26T17:00:56;3.93;;;2.90;;
37477;SDS011;23334;54.316;10.182;2022-10-26T17:03:22;4.37;;;3.30;;
37477;SDS011;23334;54.316;10.182;2022-10-26T17:05:53;4.50;;;2.83;;
37477;SDS011;23334;54.316;10.182;2022-10-26T17:08:22;6.17;;;3.60;;
37477;SDS011;23334;54.316;10.182;2022-10-26T17:10:48;4.37;;;3.60;;
37477;SDS011;23334;54.316;10.182;2022-10-26T17:13:13;12.57;;;3.53;;
37477;SDS011;23334;54.316;10.182;2022-10-26T17:15:39;5.83;;;2.87;;
37477;SDS011;23334;54.316;10.182;2022-10-26T17:18:04;3.40;;;2.73;;
37477;SDS011;23334;54.316;10.182;2022-10-26T17:20:31;7.33;;;2.80;;
37477;SDS011;23334;54.316;10.182;2022-10-26T17:22:57;3.17;;;2.90;;
37477;SDS011;23334;54.316;10.182;2022-10-26T17:25:22;4.67;;;2.80;;
37477;SDS011;23334;54.316;10.182;2022-10-26T17:27:48;3.67;;;3.00;;
37477;SDS011;23334;54.316;10.182;2022-10-26T17:30:13;17.17;;;3.67;;
37477;SDS011;23334;54.316;10.182;2022-10-26T17:32:39;3.20;;;2.90;;
37477;SDS011;23334;54.316;10.182;2022-10-26T17:35:04;13.03;;;3.27;;
37477;SDS011;23334;54.316;10.182;2022-10-26T17:37:30;7.30;;;3.73;;
37477;SDS011;23334;54.316;10.182;2022-10-26T17:39:57;6.43;;;3.73;;
37477;SDS011;23334;54.316;10.182;2022-10-26T17:42:23;11.23;;;3.97;;
37477;SDS011;23334;54.316;10.182;2022-10-26T17:44:48;6.93;;;4.00;;
37477;SDS011;23334;54.316;10.182;2022-10-26T17:47:13;7.77;;;3.70;;
37477;SDS011;23334;54.316;10.182;2022-10-26T17:49:39;10.13;;;4.10;;
37477;SDS011;23334;54.316;10.182;2022-10-26T17:52:05;8.43;;;5.40;;
37477;SDS011;23334;54.316;10.182;2022-10-26T17:54:31;5.10;;;4.33;;
37477;SDS011;23334;54.316;10.182;2022-10-26T17:56:57;14.03;;;4.40;;
37477;SDS011;23334;54.316;10.182;2022-10-26T17:59:22;8.00;;;4.30;;
37477;SDS011;23334;54.316;10.182;2022-10-26T18:01:48;7.17;;;4.23;;
37477;SDS011;23334;54.316;10.182;2022-10-26T18:04:13;7.20;;;3.90;;
37477;SDS011;23334;54.316;10.182;2022-10-26T18:06:39;10.40;;;3.90;;
37477;SDS011;23334;54.316;10.182;2022-10-26T18:09:04;9.63;;;4.50;;
37477;SDS011;23334;54.316;10.182;2022-10-26T18:11:30;6.50;;;3.73;;
37477;SDS011;23334;54.316;10.182;2022-10-26T18:13:56;9.13;;;4.40;;
37477;SDS011;23334;54.316;10.182;2022-10-26T18:16:22;4.70;;;3.30;;
37477;SDS011;23334;54.316;10.182;2022-10-26T18:18:57;7.63;;;3.57;;
37477;SDS011;23334;54.316;10.182;2022-10-26T18:21:30;9.83;;;4.20;;
37477;SDS011;23334;54.316;10.182;2022-10-26T18:23:57;6.40;;;3.70;;
37477;SDS011;23334;54.316;10.182;2022-10-26T18:26:24;9.30;;;3.47;;